Terminal Aerodrome Forecast
Issued by NWS Wilmington, OH

Current Version | Previous Version | Text Only | Print | Product List | Glossary Off
Versions: 1 2 3 4 5 6 7 8 9 10 11 12 13 14 15 16 17 18 19 20 21 22 23 24 25 26

000
FTUS41 KILN 302100 AAA
TAFCVG
TAF AMD
KCVG 302107Z 3021/3124 27012G20KT P6SM FEW070 BKN250
     FM302300 26010KT P6SM BKN250
     FM310200 21008KT P6SM BKN250
     FM311200 23012G20KT P6SM FEW080
     FM311500 27014G24KT P6SM FEW050
     FM312200 31014KT P6SM FEW050=

USA.gov is the U.S. government's official web portal to all federal, state and local government web resources and services.